Time;durP1;ratioP1;P1;durP2;ratioP2;P2;SDS_P1;SDS_P2;PMS_P1;PMS_P2;Temp;Humidity;BMP_temperature;BMP_pressure;BME280_temperature;BME280_humidity;BME280_pressure;Samples;Min_cycle;Max_cycle;Signal;HPM_P1;HPM_P2
2022/07/17 00:02:14;;;;;;;3.17;0.83;;;;;;;13.71;71.58;101995.75;5074180;28;20907;-72
2022/07/17 00:04:41;;;;;;;2.97;1.17;;;;;;;13.65;73.85;101994.19;5074101;28;20520;-72
2022/07/17 00:07:09;;;;;;;2.03;1.10;;;;;;;13.62;75.26;101995.56;5074488;28;20438;-72
2022/07/17 00:09:36;;;;;;;1.53;1.10;;;;;;;13.57;76.41;101989.38;5074059;28;20507;-72
2022/07/17 00:12:03;;;;;;;2.50;0.80;;;;;;;13.59;76.79;101993.44;5073954;28;20548;-72
2022/07/17 00:14:29;;;;;;;2.33;0.80;;;;;;;13.62;76.70;101992.03;5073970;28;20522;-71
2022/07/17 00:16:57;;;;;;;4.97;1.37;;;;;;;13.59;77.14;101988.00;5073859;28;20507;-72
2022/07/17 00:19:24;;;;;;;1.10;0.70;;;;;;;13.60;77.34;101991.53;5073897;28;20498;-72
2022/07/17 00:21:51;;;;;;;4.10;0.93;;;;;;;13.59;77.05;101996.16;5073989;28;20564;-71
2022/07/17 00:24:20;;;;;;;1.13;0.93;;;;;;;13.50;78.06;101991.59;5073749;28;20447;-71
2022/07/17 00:26:47;;;;;;;3.60;1.37;;;;;;;13.46;78.27;101999.56;5073792;28;20441;-72
2022/07/17 00:29:14;;;;;;;3.50;1.03;;;;;;;13.42;78.93;101998.50;5073741;28;20445;-72
2022/07/17 00:31:40;;;;;;;1.37;0.90;;;;;;;13.36;79.36;101999.63;5073621;28;20507;-72
2022/07/17 00:34:07;;;;;;;4.17;1.00;;;;;;;13.34;79.56;101990.94;5073572;28;20880;-72
2022/07/17 00:36:34;;;;;;;1.67;0.80;;;;;;;13.31;79.21;101991.50;5073568;28;20520;-72
2022/07/17 00:39:00;;;;;;;1.50;0.97;;;;;;;13.29;79.60;101997.25;5073510;28;20481;-72
2022/07/17 00:41:28;;;;;;;1.33;1.00;;;;;;;13.32;79.09;101993.13;5073427;28;20468;-72
2022/07/17 00:43:55;;;;;;;1.40;0.90;;;;;;;13.29;79.09;101997.25;5073461;28;20516;-72
2022/07/17 00:46:22;;;;;;;1.10;0.87;;;;;;;13.23;79.63;101989.38;5073503;28;20438;-72
2022/07/17 00:48:48;;;;;;;1.50;1.27;;;;;;;13.13;79.87;101990.25;5073119;28;20943;-72
2022/07/17 00:51:15;;;;;;;1.97;1.30;;;;;;;13.14;80.64;101980.97;5073351;28;20564;-72
2022/07/17 00:53:43;;;;;;;1.90;1.10;;;;;;;13.10;80.05;101985.38;5073030;28;20957;-72
2022/07/17 00:56:12;;;;;;;2.10;1.30;;;;;;;13.03;77.26;101984.88;5073379;28;20449;-71
2022/07/17 00:58:40;;;;;;;1.50;0.90;;;;;;;12.95;76.20;101982.75;5072754;28;20659;-71
2022/07/17 01:01:07;;;;;;;8.70;2.10;;;;;;;12.79;76.39;101988.31;5072921;28;21008;-72
2022/07/17 01:03:34;;;;;;;1.83;1.13;;;;;;;12.72;78.21;101984.28;5073189;28;20885;-72
2022/07/17 01:06:00;;;;;;;1.70;1.20;;;;;;;12.67;79.45;101987.03;5073180;28;20449;-72
2022/07/17 01:08:27;;;;;;;2.80;1.43;;;;;;;12.63;80.14;101987.56;5073229;28;20812;-72
2022/07/17 01:10:54;;;;;;;3.67;1.77;;;;;;;12.59;80.94;101980.25;5072774;28;21059;-72
2022/07/17 01:13:21;;;;;;;5.20;1.30;;;;;;;12.62;81.27;101990.59;5073188;28;20831;-72
2022/07/17 01:15:49;;;;;;;4.97;1.57;;;;;;;12.55;81.63;101984.63;5073121;28;20437;-72
2022/07/17 01:18:17;;;;;;;3.77;1.30;;;;;;;12.53;82.29;101992.25;5073008;28;20516;-72
2022/07/17 01:20:46;;;;;;;2.67;1.10;;;;;;;12.52;82.29;101986.00;5072679;28;20588;-72
2022/07/17 01:23:15;;;;;;;3.33;1.40;;;;;;;12.53;82.45;101982.19;5072876;28;20986;-72
2022/07/17 01:25:41;;;;;;;1.40;1.00;;;;;;;12.52;82.27;101985.19;5073015;28;20429;-73
2022/07/17 01:28:08;;;;;;;1.70;1.23;;;;;;;12.49;82.37;101989.28;5073038;28;20441;-71
2022/07/17 01:30:35;;;;;;;2.40;1.40;;;;;;;12.41;82.68;101983.63;5073213;28;20437;-70
2022/07/17 01:33:02;;;;;;;2.00;1.30;;;;;;;12.40;82.44;101984.72;5072969;28;20447;-71
2022/07/17 01:35:29;;;;;;;3.17;0.87;;;;;;;12.41;82.32;101989.06;5072707;28;20860;-71
2022/07/17 01:37:55;;;;;;;1.90;1.33;;;;;;;12.35;82.69;101983.66;5072861;28;20556;-71
2022/07/17 01:40:23;;;;;;;2.50;1.47;;;;;;;12.33;82.54;101993.97;5072849;28;20536;-71
2022/07/17 01:42:51;;;;;;;1.87;1.23;;;;;;;12.33;82.43;101990.44;5072910;28;20445;-71
2022/07/17 01:45:19;;;;;;;1.63;1.00;;;;;;;12.25;82.79;101986.38;5072890;28;20876;-71
2022/07/17 01:47:46;;;;;;;2.83;1.50;;;;;;;12.21;83.44;101984.50;5072881;28;20441;-71
2022/07/17 01:50:14;;;;;;;1.00;0.70;;;;;;;12.16;82.98;101977.19;5072890;28;20520;-71
2022/07/17 01:52:43;;;;;;;1.70;1.00;;;;;;;12.08;83.47;101978.56;5072082;28;20547;-71
2022/07/17 01:55:11;;;;;;;1.77;0.93;;;;;;;12.09;83.55;101976.69;5072794;28;20484;-71
2022/07/17 01:57:40;;;;;;;1.40;1.27;;;;;;;12.07;83.89;101976.13;5072711;28;20568;-71
2022/07/17 02:00:10;;;;;;;2.07;1.13;;;;;;;12.02;84.25;101982.38;5072721;28;20524;-72
2022/07/17 02:02:37;;;;;;;2.47;1.30;;;;;;;11.96;84.48;101977.25;5072391;28;20471;-71
2022/07/17 02:05:04;;;;;;;1.87;1.20;;;;;;;11.92;81.62;101984.34;5072357;28;21022;-71
2022/07/17 02:07:31;;;;;;;1.00;0.90;;;;;;;11.87;81.29;101987.88;5072650;28;20444;-71
2022/07/17 02:09:57;;;;;;;2.57;1.20;;;;;;;11.74;80.39;101988.41;5075669;28;20874;-72
2022/07/17 02:12:24;;;;;;;3.30;1.20;;;;;;;11.66;80.75;101983.53;5076265;28;20467;-71
2022/07/17 02:14:52;;;;;;;4.90;1.50;;;;;;;11.60;81.12;101980.84;5076520;28;20536;-72
2022/07/17 02:17:19;;;;;;;1.30;0.90;;;;;;;11.57;83.22;101981.38;5076172;28;20451;-72
2022/07/17 02:19:45;;;;;;;1.43;0.93;;;;;;;11.53;84.61;101979.47;5075881;28;20540;-72
2022/07/17 02:22:12;;;;;;;1.43;1.00;;;;;;;11.53;84.83;101980.28;5075837;28;20583;-72
2022/07/17 02:24:38;;;;;;;1.10;0.80;;;;;;;11.56;85.41;101981.66;5076184;28;20532;-73
2022/07/17 02:27:05;;;;;;;1.30;1.10;;;;;;;11.52;85.63;101977.84;5076062;28;20532;-72
2022/07/17 02:29:31;;;;;;;7.00;1.17;;;;;;;11.60;85.72;101975.41;5076314;28;20958;-73
2022/07/17 02:31:59;;;;;;;1.37;0.90;;;;;;;11.62;85.55;101972.41;5075906;28;20544;-72
2022/07/17 02:34:26;;;;;;;1.10;0.70;;;;;;;11.63;85.42;101984.88;5075667;28;20894;-72
2022/07/17 02:36:53;;;;;;;1.67;0.90;;;;;;;11.69;85.75;101980.28;5101380;22;20546;-66
2022/07/17 02:39:19;;;;;;;1.77;1.10;;;;;;;11.68;85.31;101978.63;5075450;28;20556;-68
2022/07/17 02:41:46;;;;;;;2.10;1.33;;;;;;;11.64;84.97;101975.66;5075606;28;20536;-69
2022/07/17 02:44:12;;;;;;;1.37;0.83;;;;;;;11.61;85.48;101992.50;5075907;28;20443;-68
2022/07/17 02:46:39;;;;;;;5.23;0.90;;;;;;;11.56;85.65;101992.50;5075948;28;20527;-68
2022/07/17 02:49:07;;;;;;;3.80;1.20;;;;;;;11.60;85.93;101990.88;5075883;28;20429;-68
2022/07/17 02:51:33;;;;;;;2.13;1.20;;;;;;;11.58;86.06;101987.59;5076044;28;20705;-68
2022/07/17 02:54:00;;;;;;;2.00;1.10;;;;;;;11.57;86.22;101997.66;5075772;28;20875;-68
2022/07/17 02:56:27;;;;;;;1.27;0.83;;;;;;;11.59;85.49;102000.88;5075668;28;20543;-67
2022/07/17 02:58:53;;;;;;;1.50;1.10;;;;;;;11.52;83.27;101991.41;5075430;28;20576;-67
2022/07/17 03:01:20;;;;;;;0.93;0.77;;;;;;;11.39;82.71;102000.09;5075527;28;20469;-68
2022/07/17 03:03:46;;;;;;;1.37;0.80;;;;;;;11.35;82.87;102000.63;5075530;28;20492;-67
2022/07/17 03:06:14;;;;;;;3.20;1.30;;;;;;;11.40;83.84;101993.59;5075202;28;20947;-69
2022/07/17 03:08:41;;;;;;;1.27;0.77;;;;;;;11.43;85.48;102006.63;5075448;28;20542;-68
2022/07/17 03:11:08;;;;;;;2.07;1.10;;;;;;;11.50;86.40;101996.28;5075180;28;20918;-68
2022/07/17 03:13:34;;;;;;;3.60;1.33;;;;;;;11.60;86.16;102004.44;5075291;28;20451;-68
2022/07/17 03:16:01;;;;;;;1.10;1.00;;;;;;;11.58;85.64;101998.47;5075278;28;20446;-68
2022/07/17 03:18:28;;;;;;;2.30;1.33;;;;;;;11.58;86.12;101998.47;5074811;28;21089;-68
2022/07/17 03:20:54;;;;;;;6.23;1.33;;;;;;;11.54;86.46;102000.09;5074040;28;21001;-68
2022/07/17 03:23:22;;;;;;;2.10;0.97;;;;;;;11.53;86.96;102001.19;5075186;28;20472;-69
2022/07/17 03:25:49;;;;;;;2.10;1.07;;;;;;;11.52;86.83;102002.28;5074798;28;20892;-69
2022/07/17 03:28:15;;;;;;;1.53;0.97;;;;;;;11.53;87.02;102009.31;5075023;28;20492;-68
2022/07/17 03:30:42;;;;;;;1.80;1.23;;;;;;;11.59;86.35;102010.94;5075214;28;20540;-70
2022/07/17 03:33:09;;;;;;;2.10;1.23;;;;;;;11.59;86.09;102014.47;5074986;28;20512;-69
2022/07/17 03:35:35;;;;;;;1.77;1.23;;;;;;;11.56;86.03;102014.22;5074717;28;20448;-68
2022/07/17 03:38:02;;;;;;;2.43;1.40;;;;;;;11.53;87.15;102020.19;5074551;28;20493;-68
2022/07/17 03:40:30;;;;;;;2.23;1.47;;;;;;;11.49;86.79;102027.22;5074907;28;20524;-68
2022/07/17 03:42:57;;;;;;;3.20;1.60;;;;;;;11.47;84.49;102024.00;5074635;28;20967;-68
2022/07/17 03:45:23;;;;;;;3.53;1.17;;;;;;;11.36;83.26;102028.56;5074829;28;20524;-68
2022/07/17 03:47:50;;;;;;;4.33;0.90;;;;;;;11.29;82.95;102041.63;5074553;28;20556;-69
2022/07/17 03:50:17;;;;;;;1.63;0.87;;;;;;;11.24;83.36;102042.38;5074612;28;20532;-68
2022/07/17 03:52:43;;;;;;;3.17;0.90;;;;;;;11.21;84.72;102045.66;5074302;28;20823;-69
2022/07/17 03:55:10;;;;;;;4.10;1.30;;;;;;;11.21;86.84;102051.09;5074442;28;20524;-68
2022/07/17 03:57:38;;;;;;;3.50;1.20;;;;;;;11.32;87.87;102055.44;5074073;28;20463;-68
2022/07/17 04:00:06;;;;;;;1.73;0.83;;;;;;;11.36;88.27;102053.00;5074092;28;20481;-69
2022/07/17 04:02:33;;;;;;;1.10;0.90;;;;;;;11.44;88.59;102057.06;5074510;28;20453;-69
2022/07/17 04:04:59;;;;;;;2.03;0.80;;;;;;;11.52;89.23;102061.97;5074203;28;20437;-68
2022/07/17 04:07:29;;;;;;;2.13;0.73;;;;;;;11.59;89.51;102057.88;5073856;28;20462;-68
2022/07/17 04:09:56;;;;;;;0.90;0.63;;;;;;;11.64;89.81;102059.78;5073827;28;20938;-69
2022/07/17 04:12:23;;;;;;;4.33;0.93;;;;;;;11.76;89.70;102063.03;5074209;28;20439;-68
2022/07/17 04:14:51;;;;;;;1.33;0.90;;;;;;;11.90;88.79;102063.34;5074091;28;21013;-69
2022/07/17 04:17:18;;;;;;;4.73;1.23;;;;;;;12.01;88.66;102070.38;5074025;28;20556;-68
2022/07/17 04:19:45;;;;;;;1.90;1.00;;;;;;;12.06;88.39;102075.00;5074031;28;20558;-68
2022/07/17 04:22:11;;;;;;;4.23;0.90;;;;;;;12.09;88.13;102069.84;5073968;28;20446;-68
2022/07/17 04:24:38;;;;;;;1.33;1.07;;;;;;;12.24;87.38;102065.47;5073856;28;20528;-68
2022/07/17 04:27:05;;;;;;;3.03;0.90;;;;;;;12.34;87.15;102066.22;5073846;28;20555;-69
2022/07/17 04:29:31;;;;;;;1.43;0.90;;;;;;;12.37;87.45;102068.41;5073955;28;20437;-68
2022/07/17 04:31:59;;;;;;;2.67;1.00;;;;;;;12.47;87.40;102069.47;5073501;28;20477;-69
2022/07/17 04:34:26;;;;;;;1.10;0.93;;;;;;;12.52;87.70;102067.53;5073913;28;20533;-69
2022/07/17 04:36:53;;;;;;;1.70;1.00;;;;;;;12.57;87.64;102077.56;5073656;28;20467;-69
2022/07/17 04:39:20;;;;;;;2.40;1.37;;;;;;;12.66;88.86;102085.97;5073681;28;20472;-68
2022/07/17 04:41:46;;;;;;;1.10;0.80;;;;;;;12.74;87.09;102085.38;5073456;28;20540;-68
2022/07/17 04:44:13;;;;;;;2.00;0.97;;;;;;;12.84;87.15;102085.38;5073312;28;21026;-68
2022/07/17 04:46:40;;;;;;;1.20;0.80;;;;;;;13.01;86.78;102084.97;5073633;28;20900;-67
2022/07/17 04:49:08;;;;;;;2.93;1.00;;;;;;;13.08;85.80;102090.94;5073578;28;20529;-67
2022/07/17 04:51:35;;;;;;;3.47;1.00;;;;;;;13.17;85.61;102094.69;5073626;28;20449;-68
2022/07/17 04:54:01;;;;;;;3.10;1.40;;;;;;;13.22;85.22;102094.69;5073449;28;20445;-68
2022/07/17 04:56:28;;;;;;;5.93;1.47;;;;;;;13.30;84.50;102088.66;5073249;28;21049;-67
2022/07/17 04:58:55;;;;;;;3.70;0.80;;;;;;;13.36;84.76;102087.53;5073363;28;20572;-68
2022/07/17 05:01:21;;;;;;;1.50;1.07;;;;;;;13.45;84.89;102089.66;5073294;28;20447;-67
2022/07/17 05:03:48;;;;;;;2.50;1.20;;;;;;;13.51;84.46;102091.25;5073555;28;20524;-67
2022/07/17 05:06:16;;;;;;;4.63;1.40;;;;;;;13.56;83.91;102097.47;5072978;28;20456;-66
2022/07/17 05:08:42;;;;;;;1.10;0.90;;;;;;;13.60;84.18;102089.53;5073308;28;20545;-67
2022/07/17 05:11:09;;;;;;;1.53;1.00;;;;;;;13.66;84.29;102090.31;5073384;28;20532;-67
2022/07/17 05:13:36;;;;;;;1.47;0.97;;;;;;;13.73;83.82;102091.63;5073295;28;20823;-66
2022/07/17 05:16:02;;;;;;;1.30;0.83;;;;;;;13.77;84.35;102092.69;5073244;28;20452;-66
2022/07/17 05:18:29;;;;;;;1.60;0.80;;;;;;;13.79;83.77;102089.66;5073155;28;20491;-65
2022/07/17 05:20:56;;;;;;;3.77;0.87;;;;;;;13.88;84.00;102090.66;5073175;28;20876;-66
2022/07/17 05:23:24;;;;;;;2.40;0.93;;;;;;;13.98;82.55;102098.72;5073231;28;20447;-65
2022/07/17 05:25:50;;;;;;;3.23;1.10;;;;;;;14.06;81.69;102091.88;5073155;28;20540;-66
2022/07/17 05:28:17;;;;;;;6.77;1.37;;;;;;;14.16;81.24;102083.56;5072702;28;20888;-65
2022/07/17 05:30:43;;;;;;;1.10;0.80;;;;;;;14.24;80.95;102098.50;5073131;28;20441;-65
2022/07/17 05:33:10;;;;;;;9.20;1.60;;;;;;;14.32;81.26;102101.41;5073040;28;20444;-65
2022/07/17 05:35:37;;;;;;;4.70;1.13;;;;;;;14.44;80.35;102108.38;5073015;28;20824;-66
2022/07/17 05:38:05;;;;;;;1.83;0.90;;;;;;;14.54;79.08;102098.19;5072611;28;20573;-66
2022/07/17 05:40:33;;;;;;;2.67;1.10;;;;;;;14.66;77.10;102091.53;5073096;28;20492;-66
2022/07/17 05:43:00;;;;;;;2.10;1.00;;;;;;;14.74;77.14;102102.63;5072979;28;20449;-66
2022/07/17 05:45:26;;;;;;;1.63;1.00;;;;;;;14.84;77.11;102102.47;5077019;28;20544;-66
2022/07/17 05:47:53;;;;;;;2.00;0.80;;;;;;;14.97;76.64;102108.31;5076951;28;20544;-66
2022/07/17 05:50:20;;;;;;;4.60;1.30;;;;;;;15.06;75.62;102106.56;5076630;28;21005;-66
2022/07/17 05:52:46;;;;;;;1.23;0.67;;;;;;;15.17;75.29;102107.22;5076732;28;20429;-66
2022/07/17 05:55:13;;;;;;;1.50;0.70;;;;;;;15.19;73.58;102126.88;5076941;28;20544;-65
2022/07/17 05:57:41;;;;;;;2.13;0.87;;;;;;;15.24;73.46;102119.41;5076699;28;20560;-67
2022/07/17 06:00:09;;;;;;;1.10;0.60;;;;;;;15.41;71.84;102118.91;5076621;28;20481;-65
2022/07/17 06:02:35;;;;;;;1.77;0.90;;;;;;;15.55;71.32;102124.41;5076439;28;20878;-66
2022/07/17 06:05:02;;;;;;;1.13;0.80;;;;;;;15.71;69.37;102120.34;5076263;28;20529;-65
2022/07/17 06:07:29;;;;;;;2.20;1.07;;;;;;;15.86;68.16;102119.31;5076111;28;20472;-67
2022/07/17 06:09:56;;;;;;;2.00;1.20;;;;;;;15.98;67.93;102127.84;5076398;28;20536;-66
2022/07/17 06:12:22;;;;;;;2.20;0.60;;;;;;;16.13;66.67;102129.50;5076414;28;20457;-67
2022/07/17 06:14:50;;;;;;;2.90;0.80;;;;;;;16.15;66.73;102132.72;5076364;28;20537;-66
2022/07/17 06:17:17;;;;;;;2.00;1.17;;;;;;;16.21;65.64;102123.34;5076240;28;20564;-67
2022/07/17 06:19:43;;;;;;;1.93;1.00;;;;;;;16.32;65.92;102127.50;5076261;28;20540;-67
2022/07/17 06:22:10;;;;;;;1.30;0.70;;;;;;;16.35;64.04;102126.09;5076343;28;20536;-67
2022/07/17 06:24:37;;;;;;;3.27;0.90;;;;;;;16.42;65.00;102129.22;5076007;28;20440;-67
2022/07/17 06:27:03;;;;;;;1.53;0.80;;;;;;;16.60;64.68;102127.50;5076171;28;20497;-67
2022/07/17 06:29:30;;;;;;;1.43;0.70;;;;;;;16.54;64.79;102132.28;5075858;28;20496;-66
2022/07/17 06:31:58;;;;;;;1.33;0.73;;;;;;;16.59;63.52;102134.09;5076103;28;20528;-67
2022/07/17 06:34:25;;;;;;;1.23;0.70;;;;;;;16.66;63.12;102129.06;5076101;28;20532;-66
2022/07/17 06:36:51;;;;;;;1.60;0.73;;;;;;;16.63;64.20;102135.94;5075542;28;20529;-66
2022/07/17 06:39:18;;;;;;;1.00;0.70;;;;;;;16.76;64.60;102134.34;5075575;28;20473;-66
2022/07/17 06:41:44;;;;;;;1.80;0.60;;;;;;;16.70;63.13;102142.94;5075944;28;20821;-68
2022/07/17 06:44:11;;;;;;;1.17;0.70;;;;;;;16.70;64.47;102142.94;5075888;28;20833;-66
2022/07/17 06:46:37;;;;;;;0.80;0.53;;;;;;;16.78;63.25;102140.34;5075905;28;20536;-66
2022/07/17 06:49:06;;;;;;;4.63;1.30;;;;;;;16.80;63.60;102135.34;5075886;28;20520;-66
2022/07/17 06:51:32;;;;;;;13.60;1.00;;;;;;;16.91;63.37;102138.72;5075841;28;20871;-66
2022/07/17 06:53:59;;;;;;;7.47;1.57;;;;;;;16.87;63.81;102141.25;5075718;28;20540;-66
2022/07/17 06:56:25;;;;;;;1.07;0.70;;;;;;;16.79;61.61;102136.47;5074225;28;20437;-65
2022/07/17 06:58:52;;;;;;;1.47;0.80;;;;;;;16.79;61.59;102141.94;5075129;28;21058;-65
2022/07/17 07:01:18;;;;;;;1.00;0.63;;;;;;;16.90;62.28;102140.59;5075558;28;20445;-65
2022/07/17 07:03:45;;;;;;;2.47;1.00;;;;;;;17.04;61.87;102154.28;5075557;28;20531;-66
2022/07/17 07:06:13;;;;;;;2.50;0.60;;;;;;;17.09;61.98;102153.38;5075290;28;20532;-65
2022/07/17 07:08:40;;;;;;;1.63;0.77;;;;;;;17.12;61.78;102156.31;5075224;28;20970;-66
2022/07/17 07:11:07;;;;;;;1.43;0.50;;;;;;;17.10;61.19;102168.69;5075063;28;20451;-65
2022/07/17 07:13:34;;;;;;;3.70;1.17;;;;;;;17.12;61.87;102159.03;5075361;28;20449;-66
2022/07/17 07:16:00;;;;;;;7.50;1.30;;;;;;;17.20;61.18;102157.50;5075068;28;20448;-66
2022/07/17 07:18:27;;;;;;;2.73;0.67;;;;;;;17.05;61.39;102163.34;5075341;28;20464;-66
2022/07/17 07:20:53;;;;;;;2.47;0.60;;;;;;;16.96;62.35;102159.69;5075095;28;20481;-66
2022/07/17 07:23:21;;;;;;;0.80;0.60;;;;;;;16.85;63.93;102168.09;5074920;28;20537;-66
2022/07/17 07:25:48;;;;;;;0.80;0.40;;;;;;;16.90;62.77;102159.78;5075238;28;20447;-66
2022/07/17 07:28:14;;;;;;;1.90;0.73;;;;;;;17.06;62.64;102157.53;5075068;28;20465;-66
2022/07/17 07:30:41;;;;;;;1.20;0.60;;;;;;;17.26;62.02;102160.94;5074930;28;21037;-66
2022/07/17 07:33:08;;;;;;;3.40;0.70;;;;;;;17.29;61.24;102157.59;5075056;28;20536;-65
2022/07/17 07:35:34;;;;;;;6.03;1.30;;;;;;;17.28;61.98;102170.50;5074937;28;20448;-66
2022/07/17 07:38:01;;;;;;;2.67;0.77;;;;;;;17.32;61.98;102166.00;5074743;28;20481;-66
2022/07/17 07:40:30;;;;;;;1.70;0.87;;;;;;;17.34;61.10;102168.44;5074696;28;20572;-65
2022/07/17 07:42:57;;;;;;;1.10;0.70;;;;;;;17.17;62.18;102169.06;5074800;28;20485;-66
2022/07/17 07:45:24;;;;;;;3.30;0.80;;;;;;;17.14;62.51;102172.44;5074735;28;20525;-65
2022/07/17 07:47:51;;;;;;;4.00;0.70;;;;;;;17.19;62.78;102169.59;5074669;28;20536;-66
2022/07/17 07:50:18;;;;;;;3.57;0.80;;;;;;;17.23;62.02;102167.88;5074356;28;20521;-65
2022/07/17 07:52:45;;;;;;;2.03;0.80;;;;;;;17.19;62.41;102166.84;5074375;28;20452;-66
2022/07/17 07:55:13;;;;;;;2.40;1.03;;;;;;;17.14;63.32;102180.66;5074513;28;20441;-66
2022/07/17 07:57:41;;;;;;;1.33;0.83;;;;;;;17.19;63.11;102179.75;5074098;28;20548;-66
2022/07/17 08:00:10;;;;;;;2.80;1.20;;;;;;;17.27;63.33;102185.31;5074420;28;20481;-67
2022/07/17 08:02:37;;;;;;;1.93;0.90;;;;;;;17.26;62.83;102171.91;5074315;28;20562;-67
2022/07/17 08:05:04;;;;;;;3.00;0.70;;;;;;;17.32;62.62;102185.19;5074184;28;20450;-68
2022/07/17 08:07:31;;;;;;;8.30;1.00;;;;;;;17.35;61.47;102175.53;5073430;28;20544;-67
2022/07/17 08:09:58;;;;;;;1.97;0.50;;;;;;;17.35;62.28;102179.09;5074089;28;20492;-69
2022/07/17 08:12:25;;;;;;;9.23;0.70;;;;;;;17.61;61.91;102175.78;5074227;28;20433;-68
2022/07/17 08:14:53;;;;;;;0.90;0.50;;;;;;;17.71;60.95;102181.03;5074066;28;20896;-68
2022/07/17 08:17:20;;;;;;;2.57;0.90;;;;;;;17.88;61.30;102186.69;5074034;28;20548;-67
2022/07/17 08:19:46;;;;;;;5.97;1.20;;;;;;;17.94;60.82;102183.81;5073898;28;20492;-67
2022/07/17 08:22:13;;;;;;;1.10;0.60;;;;;;;17.88;59.38;102178.47;5074062;28;20533;-68
2022/07/17 08:24:40;;;;;;;1.57;0.87;;;;;;;17.76;59.45;102194.66;5073902;28;20452;-68
2022/07/17 08:27:06;;;;;;;1.37;0.63;;;;;;;17.88;59.26;102188.59;5073884;28;20548;-68
2022/07/17 08:29:33;;;;;;;1.40;0.80;;;;;;;18.05;59.59;102187.91;5073939;28;20447;-67
2022/07/17 08:32:01;;;;;;;1.00;0.60;;;;;;;18.28;58.39;102186.78;5073446;28;21022;-68
2022/07/17 08:34:27;;;;;;;1.57;0.80;;;;;;;18.50;57.60;102179.63;5073812;28;20536;-68
2022/07/17 08:36:54;;;;;;;1.87;0.87;;;;;;;18.56;57.80;102190.16;5073645;28;20599;-68
2022/07/17 08:39:21;;;;;;;2.83;0.70;;;;;;;18.52;57.59;102191.91;5073662;28;20434;-68
2022/07/17 08:41:47;;;;;;;0.93;0.80;;;;;;;18.49;57.34;102187.03;5073462;28;20877;-68
2022/07/17 08:44:15;;;;;;;1.33;0.60;;;;;;;18.58;57.22;102195.31;5073716;28;20442;-66
2022/07/17 08:46:41;;;;;;;1.23;0.60;;;;;;;18.51;55.40;102198.53;5073218;28;20536;-68
2022/07/17 08:49:11;;;;;;;1.30;0.80;;;;;;;18.52;56.08;102188.34;5073218;28;20959;-68
2022/07/17 08:51:37;;;;;;;0.87;0.60;;;;;;;18.59;57.42;102191.44;5073619;28;20441;-68
2022/07/17 08:54:04;;;;;;;0.90;0.70;;;;;;;18.59;56.60;102188.69;5073476;28;20445;-66
2022/07/17 08:56:31;;;;;;;2.10;0.60;;;;;;;18.53;57.00;102192.72;5073395;28;20524;-67
2022/07/17 08:58:57;;;;;;;1.30;0.77;;;;;;;18.50;59.44;102183.16;5073277;28;20540;-69
2022/07/17 09:01:24;;;;;;;1.00;0.63;;;;;;;18.73;57.59;102191.41;5073266;28;20565;-68
2022/07/17 09:03:55;;;;;;;1.20;0.70;;;;;;;18.72;56.54;102204.28;5073386;28;20457;-67
2022/07/17 09:06:24;;;;;;;0.83;0.50;;;;;;;18.75;56.37;102203.66;5073588;28;20437;-67
2022/07/17 09:09:01;;;;;;;1.53;0.87;;;;;;;18.72;55.79;102198.78;5073448;28;20457;-68
2022/07/17 09:11:28;;;;;;;4.30;0.60;;;;;;;18.56;56.71;102205.81;5073319;28;20536;-67
2022/07/17 09:13:55;;;;;;;3.27;0.70;;;;;;;18.61;57.08;102211.97;5073312;28;20448;-67
2022/07/17 09:16:21;;;;;;;4.67;0.63;;;;;;;18.53;56.92;102206.44;5073291;28;20437;-67
2022/07/17 09:18:51;;;;;;;0.80;0.50;;;;;;;18.58;56.70;102207.09;5072364;28;20500;-67
2022/07/17 09:21:19;;;;;;;1.50;0.63;;;;;;;18.57;56.93;102207.44;5073222;28;20485;-66
2022/07/17 09:23:58;;;;;;;2.07;1.00;;;;;;;18.63;56.76;102200.66;5073232;28;20441;-68
2022/07/17 09:26:25;;;;;;;1.33;0.70;;;;;;;18.57;57.28;102199.19;5073308;28;20421;-67
2022/07/17 09:28:53;;;;;;;1.83;0.50;;;;;;;18.64;56.66;102202.31;5072755;28;20476;-67
2022/07/17 09:31:26;;;;;;;1.43;0.50;;;;;;;18.52;56.06;102196.59;5073053;28;20465;-67
2022/07/17 09:33:53;;;;;;;1.30;0.80;;;;;;;18.65;56.63;102198.44;5072992;28;20564;-67
2022/07/17 09:36:20;;;;;;;1.13;0.80;;;;;;;18.70;56.46;102187.34;5072849;28;20540;-67
2022/07/17 09:38:49;;;;;;;1.47;0.97;;;;;;;18.77;56.44;102195.94;5072690;28;20556;-68
2022/07/17 09:41:19;;;;;;;4.83;0.83;;;;;;;18.86;55.98;102202.25;5072829;28;21009;-67
2022/07/17 09:43:50;;;;;;;1.23;0.60;;;;;;;19.05;56.26;102198.44;5072966;28;20923;-67
2022/07/17 09:46:19;;;;;;;0.80;0.60;;;;;;;19.10;55.21;102206.53;5072726;28;20429;-67
2022/07/17 09:48:48;;;;;;;3.60;0.70;;;;;;;19.03;55.73;102195.19;5072791;28;20464;-67
2022/07/17 09:51:20;;;;;;;1.10;0.73;;;;;;;19.06;55.42;102195.38;5072911;28;20545;-68
2022/07/17 09:53:50;;;;;;;6.77;1.00;;;;;;;19.03;56.41;102189.69;5072891;28;20522;-67
2022/07/17 09:56:18;;;;;;;6.30;0.80;;;;;;;19.17;56.00;102190.41;5072798;28;20528;-67
2022/07/17 09:58:48;;;;;;;4.23;1.07;;;;;;;19.29;55.51;102196.06;5072408;28;21062;-68
2022/07/17 10:01:16;;;;;;;1.67;0.90;;;;;;;19.46;56.41;102192.53;5072750;28;20573;-67
2022/07/17 10:03:43;;;;;;;1.07;0.70;;;;;;;19.73;54.28;102196.94;5072763;28;20430;-68
2022/07/17 10:06:11;;;;;;;0.87;0.50;;;;;;;19.89;53.60;102195.31;5072413;28;20938;-66
2022/07/17 10:08:38;;;;;;;1.10;0.70;;;;;;;19.75;53.20;102189.19;5072667;28;20468;-67
2022/07/17 10:11:06;;;;;;;1.10;0.63;;;;;;;19.83;53.62;102185.63;5072966;28;20851;-66
2022/07/17 10:13:34;;;;;;;0.80;0.57;;;;;;;19.89;52.86;102189.00;5072712;28;20440;-66
2022/07/17 10:16:00;;;;;;;1.03;0.77;;;;;;;19.93;52.53;102189.19;5072610;28;20464;-67
2022/07/17 10:18:36;;;;;;;0.97;0.60;;;;;;;19.80;53.42;102188.22;5072430;28;20469;-66
2022/07/17 10:21:11;;;;;;;7.83;1.00;;;;;;;19.74;53.85;102176.53;5072528;28;20468;-66
2022/07/17 10:23:38;;;;;;;0.90;0.60;;;;;;;19.65;54.22;102176.56;5072506;28;20417;-66
2022/07/17 10:26:06;;;;;;;1.07;0.70;;;;;;;19.65;53.93;102182.06;5072545;28;20529;-66
2022/07/17 10:28:44;;;;;;;1.37;1.03;;;;;;;19.54;54.67;102171.69;5072699;28;20468;-66
2022/07/17 10:31:22;;;;;;;1.63;0.77;;;;;;;19.45;54.45;102179.13;5076009;28;20475;-66
2022/07/17 10:33:56;;;;;;;1.50;0.80;;;;;;;19.56;55.06;102174.91;5075768;28;20500;-66
2022/07/17 10:36:33;;;;;;;1.90;0.80;;;;;;;19.64;54.91;102176.88;5075770;28;20805;-67
2022/07/17 10:39:00;;;;;;;2.60;0.80;;;;;;;19.68;52.85;102183.34;5076089;28;20432;-67
2022/07/17 10:41:28;;;;;;;3.33;0.87;;;;;;;19.76;53.17;102187.25;5075902;28;20512;-67
2022/07/17 10:43:54;;;;;;;1.93;0.90;;;;;;;19.87;53.05;102186.56;5075752;28;20824;-67
2022/07/17 10:46:24;;;;;;;1.63;0.70;;;;;;;20.08;54.14;102185.91;5075449;28;20449;-67
2022/07/17 10:48:51;;;;;;;2.87;0.63;;;;;;;20.32;53.56;102172.44;5075391;28;20986;-66
2022/07/17 10:51:19;;;;;;;1.13;0.60;;;;;;;20.63;52.45;102179.66;5075783;28;20498;-66
2022/07/17 10:53:45;;;;;;;1.00;0.60;;;;;;;20.86;52.06;102171.91;5075710;28;20498;-67
2022/07/17 10:56:13;;;;;;;1.63;0.70;;;;;;;20.97;52.28;102164.88;5075716;28;20484;-66
2022/07/17 10:58:42;;;;;;;2.90;0.80;;;;;;;20.99;50.57;102164.56;5075245;28;20469;-67
2022/07/17 11:01:12;;;;;;;1.87;0.73;;;;;;;20.84;51.16;102182.44;5075485;28;20481;-66
2022/07/17 11:03:41;;;;;;;1.40;0.60;;;;;;;20.82;50.86;102179.22;5075528;28;20490;-66
2022/07/17 11:06:19;;;;;;;2.60;1.00;;;;;;;20.65;50.08;102180.09;5075655;28;20449;-66
2022/07/17 11:08:48;;;;;;;2.37;1.00;;;;;;;20.69;51.68;102177.50;5075671;28;20812;-67
2022/07/17 11:11:17;;;;;;;1.17;0.70;;;;;;;20.68;50.97;102182.22;5075453;28;20506;-65
2022/07/17 11:13:45;;;;;;;6.07;1.20;;;;;;;20.83;51.90;102184.41;5075354;28;20452;-67
2022/07/17 11:16:12;;;;;;;2.20;1.13;;;;;;;20.97;50.32;102172.34;5075306;28;20468;-66
2022/07/17 11:18:47;;;;;;;1.10;0.80;;;;;;;21.21;50.07;102174.47;5075325;28;20461;-67
2022/07/17 11:21:14;;;;;;;4.27;0.93;;;;;;;21.30;49.12;102178.78;5075366;28;20469;-67
2022/07/17 11:23:51;;;;;;;1.43;0.77;;;;;;;21.22;48.20;102171.38;5074925;28;20926;-68
2022/07/17 11:26:19;;;;;;;0.70;0.60;;;;;;;21.38;47.94;102172.44;5075897;28;20780;-67